sensor_id;sensor_type;location;lat;lon;timestamp;P1;durP1;ratioP1;P2;durP2;ratioP2
77748;SDS011;66938;52.084;5.228;2024-03-06T00:00:40;53.2;;;29.4;;
77748;SDS011;66938;52.084;5.228;2024-03-06T00:02:17;54.4;;;30.7;;
77748;SDS011;66938;52.084;5.228;2024-03-06T00:03:53;56.8;;;32.9;;
77748;SDS011;66938;52.084;5.228;2024-03-06T00:07:05;61.6;;;34.0;;
77748;SDS011;66938;52.084;5.228;2024-03-06T00:08:41;66.3;;;35.0;;
77748;SDS011;66938;52.084;5.228;2024-03-06T00:10:18;58.4;;;32.71;;
77748;SDS011;66938;52.084;5.228;2024-03-06T00:13:31;59.3;;;33.71;;
77748;SDS011;66938;52.084;5.228;2024-03-06T00:15:07;59.1;;;32.9;;
77748;SDS011;66938;52.084;5.228;2024-03-06T00:16:45;69.3;;;35.81;;
77748;SDS011;66938;52.084;5.228;2024-03-06T00:19:56;60.4;;;33.8;;
77748;SDS011;66938;52.084;5.228;2024-03-06T00:21:33;56.5;;;33.71;;
77748;SDS011;66938;52.084;5.228;2024-03-06T00:23:09;58.3;;;32.3;;
77748;SDS011;66938;52.084;5.228;2024-03-06T00:24:45;54.7;;;31.2;;
77748;SDS011;66938;52.084;5.228;2024-03-06T00:27:57;49.3;;;27.7;;
77748;SDS011;66938;52.084;5.228;2024-03-06T00:29:33;52.2;;;29.1;;
77748;SDS011;66938;52.084;5.228;2024-03-06T00:31:08;44.1;;;27.2;;
77748;SDS011;66938;52.084;5.228;2024-03-06T00:34:20;48.7;;;28.7;;
77748;SDS011;66938;52.084;5.228;2024-03-06T00:35:56;63.6;;;33.0;;
77748;SDS011;66938;52.084;5.228;2024-03-06T00:37:38;63.1;;;33.71;;
77748;SDS011;66938;52.084;5.228;2024-03-06T00:40:50;57.2;;;31.1;;
77748;SDS011;66938;52.084;5.228;2024-03-06T00:42:26;56.9;;;32.71;;
77748;SDS011;66938;52.084;5.228;2024-03-06T00:44:02;68.0;;;36.0;;
77748;SDS011;66938;52.084;5.228;2024-03-06T00:45:39;68.0;;;36.31;;
77748;SDS011;66938;52.084;5.228;2024-03-06T00:48:51;70.3;;;35.81;;
77748;SDS011;66938;52.084;5.228;2024-03-06T00:50:27;77.0;;;38.31;;
77748;SDS011;66938;52.084;5.228;2024-03-06T00:52:04;77.61;;;38.0;;
77748;SDS011;66938;52.084;5.228;2024-03-06T00:55:16;71.8;;;35.71;;
77748;SDS011;66938;52.084;5.228;2024-03-06T00:56:52;70.41;;;36.9;;
77748;SDS011;66938;52.084;5.228;2024-03-06T00:58:28;67.41;;;35.81;;
77748;SDS011;66938;52.084;5.228;2024-03-06T01:01:42;64.2;;;33.3;;
77748;SDS011;66938;52.084;5.228;2024-03-06T01:03:18;66.6;;;34.71;;
77748;SDS011;66938;52.084;5.228;2024-03-06T01:04:54;60.9;;;33.71;;
77748;SDS011;66938;52.084;5.228;2024-03-06T01:06:30;70.11;;;33.8;;
77748;SDS011;66938;52.084;5.228;2024-03-06T01:09:43;70.41;;;36.4;;
77748;SDS011;66938;52.084;5.228;2024-03-06T01:11:19;66.0;;;34.71;;
77748;SDS011;66938;52.084;5.228;2024-03-06T01:12:55;68.41;;;34.21;;
77748;SDS011;66938;52.084;5.228;2024-03-06T01:16:07;65.6;;;33.71;;
77748;SDS011;66938;52.084;5.228;2024-03-06T01:17:43;61.6;;;33.3;;
77748;SDS011;66938;52.084;5.228;2024-03-06T01:19:19;58.6;;;32.3;;
77748;SDS011;66938;52.084;5.228;2024-03-06T01:22:35;74.41;;;34.31;;
77748;SDS011;66938;52.084;5.228;2024-03-06T01:24:11;72.7;;;35.0;;
77748;SDS011;66938;52.084;5.228;2024-03-06T01:25:47;67.91;;;34.31;;
77748;SDS011;66938;52.084;5.228;2024-03-06T01:28:59;60.4;;;33.1;;
77748;SDS011;66938;52.084;5.228;2024-03-06T01:30:35;58.8;;;32.8;;
77748;SDS011;66938;52.084;5.228;2024-03-06T01:32:11;57.9;;;32.1;;
77748;SDS011;66938;52.084;5.228;2024-03-06T01:33:50;40.81;;;27.5;;
77748;SDS011;66938;52.084;5.228;2024-03-06T01:37:03;49.2;;;29.6;;
77748;SDS011;66938;52.084;5.228;2024-03-06T01:38:39;54.9;;;31.3;;
77748;SDS011;66938;52.084;5.228;2024-03-06T01:40:15;57.3;;;30.5;;
77748;SDS011;66938;52.084;5.228;2024-03-06T01:43:27;48.8;;;29.9;;
77748;SDS011;66938;52.084;5.228;2024-03-06T01:45:04;42.1;;;27.5;;
77748;SDS011;66938;52.084;5.228;2024-03-06T01:46:42;36.0;;;24.7;;
77748;SDS011;66938;52.084;5.228;2024-03-06T01:48:20;39.9;;;25.3;;
77748;SDS011;66938;52.084;5.228;2024-03-06T01:51:35;53.9;;;30.4;;
77748;SDS011;66938;52.084;5.228;2024-03-06T01:53:12;62.6;;;32.6;;
77748;SDS011;66938;52.084;5.228;2024-03-06T01:54:50;53.4;;;30.8;;
77748;SDS011;66938;52.084;5.228;2024-03-06T01:58:03;58.6;;;31.2;;
77748;SDS011;66938;52.084;5.228;2024-03-06T01:59:40;61.4;;;33.4;;
77748;SDS011;66938;52.084;5.228;2024-03-06T02:01:19;56.6;;;32.5;;
77748;SDS011;66938;52.084;5.228;2024-03-06T02:04:33;64.6;;;33.6;;
77748;SDS011;66938;52.084;5.228;2024-03-06T02:06:09;68.7;;;34.71;;
77748;SDS011;66938;52.084;5.228;2024-03-06T02:07:47;60.8;;;34.0;;
77748;SDS011;66938;52.084;5.228;2024-03-06T02:09:24;60.4;;;33.4;;
77748;SDS011;66938;52.084;5.228;2024-03-06T02:12:36;60.7;;;33.71;;
77748;SDS011;66938;52.084;5.228;2024-03-06T02:14:12;50.2;;;30.2;;
77748;SDS011;66938;52.084;5.228;2024-03-06T02:15:48;54.5;;;31.3;;
77748;SDS011;66938;52.084;5.228;2024-03-06T02:19:04;49.8;;;30.4;;
77748;SDS011;66938;52.084;5.228;2024-03-06T02:20:41;63.3;;;33.21;;
77748;SDS011;66938;52.084;5.228;2024-03-06T02:22:17;50.1;;;30.9;;
77748;SDS011;66938;52.084;5.228;2024-03-06T02:23:53;49.7;;;30.0;;
77748;SDS011;66938;52.084;5.228;2024-03-06T02:27:05;58.6;;;32.3;;
77748;SDS011;66938;52.084;5.228;2024-03-06T02:28:46;56.9;;;33.21;;
77748;SDS011;66938;52.084;5.228;2024-03-06T02:30:22;50.3;;;31.0;;
77748;SDS011;66938;52.084;5.228;2024-03-06T02:33:35;57.6;;;31.9;;
77748;SDS011;66938;52.084;5.228;2024-03-06T02:35:11;64.0;;;34.31;;
77748;SDS011;66938;52.084;5.228;2024-03-06T02:36:47;63.7;;;34.21;;
77748;SDS011;66938;52.084;5.228;2024-03-06T02:39:59;61.9;;;34.9;;
77748;SDS011;66938;52.084;5.228;2024-03-06T02:41:35;53.5;;;32.6;;
77748;SDS011;66938;52.084;5.228;2024-03-06T02:43:12;57.3;;;32.1;;
77748;SDS011;66938;52.084;5.228;2024-03-06T02:44:48;57.0;;;32.8;;
77748;SDS011;66938;52.084;5.228;2024-03-06T02:48:00;57.3;;;33.6;;
77748;SDS011;66938;52.084;5.228;2024-03-06T02:49:37;66.0;;;35.1;;
77748;SDS011;66938;52.084;5.228;2024-03-06T02:51:17;69.91;;;36.4;;
77748;SDS011;66938;52.084;5.228;2024-03-06T02:54:33;64.7;;;36.0;;
77748;SDS011;66938;52.084;5.228;2024-03-06T02:56:15;61.7;;;34.9;;
77748;SDS011;66938;52.084;5.228;2024-03-06T02:57:51;69.11;;;35.0;;
77748;SDS011;66938;52.084;5.228;2024-03-06T02:59:27;58.2;;;33.71;;
77748;SDS011;66938;52.084;5.228;2024-03-06T03:02:39;57.7;;;33.3;;
77748;SDS011;66938;52.084;5.228;2024-03-06T03:04:16;57.5;;;33.21;;
77748;SDS011;66938;52.084;5.228;2024-03-06T03:05:53;60.6;;;33.5;;
77748;SDS011;66938;52.084;5.228;2024-03-06T03:09:05;64.0;;;34.0;;
77748;SDS011;66938;52.084;5.228;2024-03-06T03:10:41;69.3;;;36.81;;
77748;SDS011;66938;52.084;5.228;2024-03-06T03:12:17;66.5;;;35.31;;
77748;SDS011;66938;52.084;5.228;2024-03-06T03:15:33;66.7;;;36.31;;
77748;SDS011;66938;52.084;5.228;2024-03-06T03:17:10;71.8;;;37.1;;
77748;SDS011;66938;52.084;5.228;2024-03-06T03:18:46;70.2;;;37.81;;
77748;SDS011;66938;52.084;5.228;2024-03-06T03:20:23;68.41;;;37.9;;
77748;SDS011;66938;52.084;5.228;2024-03-06T03:23:35;68.41;;;37.9;;
77748;SDS011;66938;52.084;5.228;2024-03-06T03:25:12;68.91;;;37.21;;
77748;SDS011;66938;52.084;5.228;2024-03-06T03:26:48;69.2;;;36.31;;
77748;SDS011;66938;52.084;5.228;2024-03-06T03:30:01;68.7;;;38.0;;
77748;SDS011;66938;52.084;5.228;2024-03-06T03:31:37;69.61;;;36.21;;
77748;SDS011;66938;52.084;5.228;2024-03-06T03:33:13;72.11;;;38.1;;
77748;SDS011;66938;52.084;5.228;2024-03-06T03:36:25;69.5;;;37.71;;
77748;SDS011;66938;52.084;5.228;2024-03-06T03:38:04;64.2;;;36.6;;
77748;SDS011;66938;52.084;5.228;2024-03-06T03:39:40;53.9;;;34.31;;
77748;SDS011;66938;52.084;5.228;2024-03-06T03:41:16;43.0;;;29.7;;
77748;SDS011;66938;52.084;5.228;2024-03-06T03:44:29;48.0;;;31.6;;
77748;SDS011;66938;52.084;5.228;2024-03-06T03:46:05;54.3;;;32.9;;
77748;SDS011;66938;52.084;5.228;2024-03-06T03:47:41;55.3;;;34.5;;
77748;SDS011;66938;52.084;5.228;2024-03-06T03:50:53;48.1;;;31.3;;
77748;SDS011;66938;52.084;5.228;2024-03-06T03:52:29;63.0;;;35.21;;
77748;SDS011;66938;52.084;5.228;2024-03-06T03:54:05;60.9;;;36.6;;
77748;SDS011;66938;52.084;5.228;2024-03-06T03:57:18;67.2;;;38.0;;
77748;SDS011;66938;52.084;5.228;2024-03-06T03:58:55;61.1;;;36.0;;
77748;SDS011;66938;52.084;5.228;2024-03-06T04:00:32;65.0;;;36.5;;
77748;SDS011;66938;52.084;5.228;2024-03-06T04:03:44;65.1;;;37.4;;
77748;SDS011;66938;52.084;5.228;2024-03-06T04:05:20;70.11;;;38.5;;
77748;SDS011;66938;52.084;5.228;2024-03-06T04:06:56;71.7;;;41.8;;
77748;SDS011;66938;52.084;5.228;2024-03-06T04:08:32;67.7;;;39.71;;
77748;SDS011;66938;52.084;5.228;2024-03-06T04:11:46;64.7;;;38.4;;
77748;SDS011;66938;52.084;5.228;2024-03-06T04:13:22;64.7;;;38.4;;
77748;SDS011;66938;52.084;5.228;2024-03-06T04:14:59;61.9;;;38.0;;
77748;SDS011;66938;52.084;5.228;2024-03-06T04:18:11;66.0;;;39.6;;
77748;SDS011;66938;52.084;5.228;2024-03-06T04:19:47;73.2;;;40.21;;
77748;SDS011;66938;52.084;5.228;2024-03-06T04:21:23;68.5;;;40.1;;
77748;SDS011;66938;52.084;5.228;2024-03-06T04:24:35;71.8;;;40.71;;
77748;SDS011;66938;52.084;5.228;2024-03-06T04:26:11;76.91;;;42.1;;
77748;SDS011;66938;52.084;5.228;2024-03-06T04:27:49;69.61;;;42.4;;
77748;SDS011;66938;52.084;5.228;2024-03-06T04:29:25;57.3;;;36.81;;
77748;SDS011;66938;52.084;5.228;2024-03-06T04:32:37;57.9;;;35.81;;
77748;SDS011;66938;52.084;5.228;2024-03-06T04:34:13;55.8;;;35.9;;
77748;SDS011;66938;52.084;5.228;2024-03-06T04:35:49;48.1;;;33.0;;
77748;SDS011;66938;52.084;5.228;2024-03-06T04:39:01;50.9;;;35.21;;
77748;SDS011;66938;52.084;5.228;2024-03-06T04:40:38;60.1;;;36.81;;
77748;SDS011;66938;52.084;5.228;2024-03-06T04:42:15;58.6;;;36.9;;
77748;SDS011;66938;52.084;5.228;2024-03-06T04:45:27;55.8;;;36.1;;
77748;SDS011;66938;52.084;5.228;2024-03-06T04:47:03;59.6;;;36.81;;
77748;SDS011;66938;52.084;5.228;2024-03-06T04:48:39;56.3;;;36.71;;
77748;SDS011;66938;52.084;5.228;2024-03-06T04:51:54;68.41;;;38.6;;
77748;SDS011;66938;52.084;5.228;2024-03-06T04:53:30;64.3;;;39.9;;
77748;SDS011;66938;52.084;5.228;2024-03-06T04:55:07;65.91;;;39.31;;
77748;SDS011;66938;52.084;5.228;2024-03-06T04:56:43;63.2;;;39.0;;
77748;SDS011;66938;52.084;5.228;2024-03-06T04:59:56;57.7;;;36.31;;
77748;SDS011;66938;52.084;5.228;2024-03-06T05:01:32;58.3;;;37.81;;
77748;SDS011;66938;52.084;5.228;2024-03-06T05:03:11;58.3;;;37.81;;
77748;SDS011;66938;52.084;5.228;2024-03-06T05:06:23;58.8;;;37.9;;
77748;SDS011;66938;52.084;5.228;2024-03-06T05:07:59;60.4;;;39.0;;
77748;SDS011;66938;52.084;5.228;2024-03-06T05:09:35;67.1;;;40.1;;
77748;SDS011;66938;52.084;5.228;2024-03-06T05:12:48;63.7;;;39.81;;
77748;SDS011;66938;52.084;5.228;2024-03-06T05:14:24;66.7;;;39.6;;
77748;SDS011;66938;52.084;5.228;2024-03-06T05:16:00;56.3;;;37.21;;
77748;SDS011;66938;52.084;5.228;2024-03-06T05:17:36;65.2;;;39.21;;
77748;SDS011;66938;52.084;5.228;2024-03-06T05:20:48;68.0;;;41.1;;
77748;SDS011;66938;52.084;5.228;2024-03-06T05:22:24;72.61;;;42.5;;
77748;SDS011;66938;52.084;5.228;2024-03-06T05:24:00;73.8;;;43.5;;
77748;SDS011;66938;52.084;5.228;2024-03-06T05:27:12;72.61;;;43.9;;
77748;SDS011;66938;52.084;5.228;2024-03-06T05:28:48;71.3;;;41.8;;
77748;SDS011;66938;52.084;5.228;2024-03-06T05:30:25;71.11;;;42.4;;
77748;SDS011;66938;52.084;5.228;2024-03-06T05:33:37;77.0;;;42.0;;
77748;SDS011;66938;52.084;5.228;2024-03-06T05:35:13;72.61;;;41.8;;
77748;SDS011;66938;52.084;5.228;2024-03-06T05:36:49;68.1;;;40.0;;
77748;SDS011;66938;52.084;5.228;2024-03-06T05:38:25;62.5;;;39.81;;
77748;SDS011;66938;52.084;5.228;2024-03-06T05:41:38;73.11;;;41.6;;
77748;SDS011;66938;52.084;5.228;2024-03-06T05:43:14;71.0;;;42.1;;
77748;SDS011;66938;52.084;5.228;2024-03-06T05:44:50;86.9;;;44.9;;
77748;SDS011;66938;52.084;5.228;2024-03-06T05:48:02;86.9;;;44.9;;
77748;SDS011;66938;52.084;5.228;2024-03-06T05:49:38;77.0;;;43.4;;
77748;SDS011;66938;52.084;5.228;2024-03-06T05:51:14;78.8;;;42.3;;
77748;SDS011;66938;52.084;5.228;2024-03-06T05:54:26;83.0;;;43.4;;
77748;SDS011;66938;52.084;5.228;2024-03-06T05:56:04;72.8;;;43.2;;
77748;SDS011;66938;52.084;5.228;2024-03-06T05:57:40;78.8;;;44.4;;
77748;SDS011;66938;52.084;5.228;2024-03-06T06:00:54;89.4;;;43.7;;
77748;SDS011;66938;52.084;5.228;2024-03-06T06:02:30;91.3;;;46.4;;
77748;SDS011;66938;52.084;5.228;2024-03-06T06:04:06;103.9;;;48.0;;
77748;SDS011;66938;52.084;5.228;2024-03-06T06:05:43;93.7;;;44.5;;
77748;SDS011;66938;52.084;5.228;2024-03-06T06:08:55;77.8;;;43.1;;
77748;SDS011;66938;52.084;5.228;2024-03-06T06:10:31;73.8;;;41.8;;
77748;SDS011;66938;52.084;5.228;2024-03-06T06:12:07;85.2;;;42.8;;
77748;SDS011;66938;52.084;5.228;2024-03-06T06:15:19;93.9;;;44.3;;
77748;SDS011;66938;52.084;5.228;2024-03-06T06:16:56;82.6;;;41.9;;
77748;SDS011;66938;52.084;5.228;2024-03-06T06:18:33;82.1;;;42.8;;
77748;SDS011;66938;52.084;5.228;2024-03-06T06:21:46;75.7;;;40.31;;
77748;SDS011;66938;52.084;5.228;2024-03-06T06:23:22;91.0;;;44.4;;
77748;SDS011;66938;52.084;5.228;2024-03-06T06:24:58;72.2;;;39.81;;
77748;SDS011;66938;52.084;5.228;2024-03-06T06:26:34;82.9;;;41.5;;
77748;SDS011;66938;52.084;5.228;2024-03-06T06:29:46;83.0;;;42.0;;
77748;SDS011;66938;52.084;5.228;2024-03-06T06:31:23;81.0;;;42.3;;
77748;SDS011;66938;52.084;5.228;2024-03-06T06:32:59;67.91;;;39.21;;
77748;SDS011;66938;52.084;5.228;2024-03-06T06:36:12;61.8;;;37.31;;
77748;SDS011;66938;52.084;5.228;2024-03-06T06:37:48;80.2;;;40.81;;
77748;SDS011;66938;52.084;5.228;2024-03-06T06:39:24;94.8;;;45.5;;
77748;SDS011;66938;52.084;5.228;2024-03-06T06:42:36;76.5;;;41.7;;
77748;SDS011;66938;52.084;5.228;2024-03-06T06:44:12;71.3;;;41.0;;
77748;SDS011;66938;52.084;5.228;2024-03-06T06:45:48;62.8;;;38.71;;
77748;SDS011;66938;52.084;5.228;2024-03-06T06:49:00;52.7;;;35.1;;
77748;SDS011;66938;52.084;5.228;2024-03-06T06:50:37;61.4;;;36.81;;
77748;SDS011;66938;52.084;5.228;2024-03-06T06:52:14;89.9;;;43.5;;
77748;SDS011;66938;52.084;5.228;2024-03-06T06:53:50;93.0;;;45.5;;
77748;SDS011;66938;52.084;5.228;2024-03-06T06:57:02;96.8;;;45.0;;
77748;SDS011;66938;52.084;5.228;2024-03-06T06:58:38;60.0;;;37.31;;
77748;SDS011;66938;52.084;5.228;2024-03-06T07:00:14;92.3;;;44.2;;
77748;SDS011;66938;52.084;5.228;2024-03-06T07:03:27;94.8;;;46.7;;
77748;SDS011;66938;52.084;5.228;2024-03-06T07:05:04;80.5;;;43.7;;
77748;SDS011;66938;52.084;5.228;2024-03-06T07:06:39;53.1;;;36.81;;
77748;SDS011;66938;52.084;5.228;2024-03-06T07:09:52;60.0;;;36.71;;
77748;SDS011;66938;52.084;5.228;2024-03-06T07:11:28;55.0;;;36.1;;
77748;SDS011;66938;52.084;5.228;2024-03-06T07:13:04;54.7;;;35.1;;
77748;SDS011;66938;52.084;5.228;2024-03-06T07:14:40;49.4;;;33.8;;
77748;SDS011;66938;52.084;5.228;2024-03-06T07:17:52;47.7;;;33.9;;
77748;SDS011;66938;52.084;5.228;2024-03-06T07:19:28;53.1;;;36.0;;
77748;SDS011;66938;52.084;5.228;2024-03-06T07:21:04;54.1;;;35.81;;
77748;SDS011;66938;52.084;5.228;2024-03-06T07:24:17;63.8;;;35.1;;
77748;SDS011;66938;52.084;5.228;2024-03-06T07:25:53;63.8;;;35.1;;
77748;SDS011;66938;52.084;5.228;2024-03-06T07:27:29;61.2;;;38.1;;
77748;SDS011;66938;52.084;5.228;2024-03-06T07:30:41;62.8;;;37.4;;
77748;SDS011;66938;52.084;5.228;2024-03-06T07:32:17;52.1;;;36.1;;
77748;SDS011;66938;52.084;5.228;2024-03-06T07:33:53;56.4;;;36.31;;
77748;SDS011;66938;52.084;5.228;2024-03-06T07:37:05;63.1;;;37.4;;
77748;SDS011;66938;52.084;5.228;2024-03-06T07:38:41;52.4;;;35.0;;
77748;SDS011;66938;52.084;5.228;2024-03-06T07:40:18;50.0;;;35.81;;
77748;SDS011;66938;52.084;5.228;2024-03-06T07:41:53;48.9;;;33.4;;
77748;SDS011;66938;52.084;5.228;2024-03-06T07:45:06;44.8;;;31.2;;
77748;SDS011;66938;52.084;5.228;2024-03-06T07:46:43;55.3;;;35.6;;
77748;SDS011;66938;52.084;5.228;2024-03-06T07:53:07;81.11;;;42.3;;
77748;SDS011;66938;52.084;5.228;2024-03-06T07:56:19;65.0;;;40.71;;
77748;SDS011;66938;52.084;5.228;2024-03-06T07:57:56;64.5;;;40.31;;
77748;SDS011;66938;52.084;5.228;2024-03-06T07:59:32;60.0;;;40.4;;
77748;SDS011;66938;52.084;5.228;2024-03-06T08:02:44;56.6;;;39.1;;
77748;SDS011;66938;52.084;5.228;2024-03-06T08:04:20;69.0;;;41.0;;
77748;SDS011;66938;52.084;5.228;2024-03-06T08:05:56;55.3;;;37.9;;
77748;SDS011;66938;52.084;5.228;2024-03-06T08:07:32;49.8;;;35.71;;
77748;SDS011;66938;52.084;5.228;2024-03-06T08:10:44;51.2;;;34.6;;
77748;SDS011;66938;52.084;5.228;2024-03-06T08:12:21;51.0;;;35.71;;
77748;SDS011;66938;52.084;5.228;2024-03-06T08:13:57;63.2;;;38.0;;
77748;SDS011;66938;52.084;5.228;2024-03-06T08:17:10;52.4;;;37.21;;
77748;SDS011;66938;52.084;5.228;2024-03-06T08:18:46;59.5;;;40.71;;
77748;SDS011;66938;52.084;5.228;2024-03-06T08:20:22;66.41;;;41.9;;
77748;SDS011;66938;52.084;5.228;2024-03-06T08:23:34;68.3;;;43.1;;
77748;SDS011;66938;52.084;5.228;2024-03-06T08:25:11;56.0;;;38.9;;
77748;SDS011;66938;52.084;5.228;2024-03-06T08:26:48;55.2;;;39.1;;
77748;SDS011;66938;52.084;5.228;2024-03-06T08:30:01;73.2;;;41.3;;
77748;SDS011;66938;52.084;5.228;2024-03-06T08:31:37;70.61;;;42.4;;
77748;SDS011;66938;52.084;5.228;2024-03-06T08:33:13;66.7;;;41.2;;
77748;SDS011;66938;52.084;5.228;2024-03-06T08:34:49;48.1;;;35.81;;
77748;SDS011;66938;52.084;5.228;2024-03-06T08:38:01;49.2;;;35.6;;
77748;SDS011;66938;52.084;5.228;2024-03-06T08:39:37;47.5;;;34.1;;
77748;SDS011;66938;52.084;5.228;2024-03-06T08:41:13;65.0;;;40.9;;
77748;SDS011;66938;52.084;5.228;2024-03-06T08:44:25;64.7;;;41.8;;
77748;SDS011;66938;52.084;5.228;2024-03-06T08:46:02;57.7;;;39.21;;
77748;SDS011;66938;52.084;5.228;2024-03-06T08:47:38;71.3;;;42.9;;
77748;SDS011;66938;52.084;5.228;2024-03-06T08:50:50;60.1;;;40.0;;
77748;SDS011;66938;52.084;5.228;2024-03-06T08:52:26;57.7;;;38.81;;
77748;SDS011;66938;52.084;5.228;2024-03-06T08:54:02;44.5;;;34.0;;
77748;SDS011;66938;52.084;5.228;2024-03-06T08:57:14;45.0;;;33.6;;
77748;SDS011;66938;52.084;5.228;2024-03-06T08:58:50;49.4;;;36.0;;
77748;SDS011;66938;52.084;5.228;2024-03-06T09:00:27;47.4;;;35.5;;
77748;SDS011;66938;52.084;5.228;2024-03-06T09:02:11;43.1;;;32.0;;
77748;SDS011;66938;52.084;5.228;2024-03-06T09:05:25;49.0;;;35.81;;
77748;SDS011;66938;52.084;5.228;2024-03-06T09:07:01;39.6;;;31.6;;
77748;SDS011;66938;52.084;5.228;2024-03-06T09:08:37;45.0;;;33.5;;
77748;SDS011;66938;52.084;5.228;2024-03-06T09:11:52;46.7;;;34.1;;
77748;SDS011;66938;52.084;5.228;2024-03-06T09:13:28;43.5;;;32.8;;
77748;SDS011;66938;52.084;5.228;2024-03-06T09:15:05;46.6;;;33.0;;
77748;SDS011;66938;52.084;5.228;2024-03-06T09:16:41;47.7;;;34.5;;
77748;SDS011;66938;52.084;5.228;2024-03-06T09:19:54;45.9;;;34.21;;
77748;SDS011;66938;52.084;5.228;2024-03-06T09:21:30;44.4;;;33.1;;
77748;SDS011;66938;52.084;5.228;2024-03-06T09:23:06;51.4;;;37.21;;
77748;SDS011;66938;52.084;5.228;2024-03-06T09:26:18;40.6;;;32.3;;
77748;SDS011;66938;52.084;5.228;2024-03-06T09:27:54;38.6;;;30.4;;
77748;SDS011;66938;52.084;5.228;2024-03-06T09:29:30;44.9;;;32.5;;
77748;SDS011;66938;52.084;5.228;2024-03-06T09:32:44;41.6;;;32.1;;
77748;SDS011;66938;52.084;5.228;2024-03-06T09:34:20;44.7;;;32.9;;
77748;SDS011;66938;52.084;5.228;2024-03-06T09:35:56;38.6;;;30.2;;
77748;SDS011;66938;52.084;5.228;2024-03-06T09:37:32;38.1;;;30.1;;
77748;SDS011;66938;52.084;5.228;2024-03-06T09:40:44;35.9;;;28.3;;
77748;SDS011;66938;52.084;5.228;2024-03-06T09:42:20;36.9;;;28.8;;
77748;SDS011;66938;52.084;5.228;2024-03-06T09:43:56;33.4;;;27.9;;
77748;SDS011;66938;52.084;5.228;2024-03-06T09:47:09;40.71;;;31.9;;
77748;SDS011;66938;52.084;5.228;2024-03-06T09:48:49;31.5;;;26.5;;
77748;SDS011;66938;52.084;5.228;2024-03-06T09:50:27;31.1;;;24.8;;
77748;SDS011;66938;52.084;5.228;2024-03-06T09:52:08;34.0;;;27.3;;
77748;SDS011;66938;52.084;5.228;2024-03-06T09:55:21;31.8;;;26.9;;
77748;SDS011;66938;52.084;5.228;2024-03-06T09:57:00;35.6;;;28.3;;
77748;SDS011;66938;52.084;5.228;2024-03-06T09:58:36;34.21;;;27.4;;
77748;SDS011;66938;52.084;5.228;2024-03-06T10:01:50;29.5;;;25.0;;
77748;SDS011;66938;52.084;5.228;2024-03-06T10:03:30;32.6;;;27.3;;
77748;SDS011;66938;52.084;5.228;2024-03-06T10:05:17;30.3;;;25.2;;
77748;SDS011;66938;52.084;5.228;2024-03-06T10:06:57;32.1;;;25.7;;
77748;SDS011;66938;52.084;5.228;2024-03-06T10:10:11;34.1;;;25.4;;
77748;SDS011;66938;52.084;5.228;2024-03-06T10:11:47;28.1;;;23.1;;
77748;SDS011;66938;52.084;5.228;2024-03-06T10:13:24;28.8;;;24.3;;
77748;SDS011;66938;52.084;5.228;2024-03-06T10:16:37;29.9;;;25.0;;
77748;SDS011;66938;52.084;5.228;2024-03-06T10:18:27;28.5;;;22.6;;
77748;SDS011;66938;52.084;5.228;2024-03-06T10:20:16;25.9;;;22.2;;
77748;SDS011;66938;52.084;5.228;2024-03-06T10:21:55;24.2;;;20.3;;
77748;SDS011;66938;52.084;5.228;2024-03-06T10:23:32;25.1;;;20.6;;
77748;SDS011;66938;52.084;5.228;2024-03-06T10:26:44;27.8;;;22.9;;
77748;SDS011;66938;52.084;5.228;2024-03-06T10:28:20;28.8;;;23.1;;
77748;SDS011;66938;52.084;5.228;2024-03-06T10:30:01;26.8;;;22.4;;
77748;SDS011;66938;52.084;5.228;2024-03-06T10:33:14;27.9;;;22.0;;
77748;SDS011;66938;52.084;5.228;2024-03-06T10:34:52;27.7;;;22.8;;
77748;SDS011;66938;52.084;5.228;2024-03-06T10:36:31;28.9;;;23.6;;
77748;SDS011;66938;52.084;5.228;2024-03-06T10:39:45;26.8;;;22.8;;
77748;SDS011;66938;52.084;5.228;2024-03-06T10:41:25;27.9;;;22.5;;
77748;SDS011;66938;52.084;5.228;2024-03-06T10:43:07;27.9;;;23.0;;
77748;SDS011;66938;52.084;5.228;2024-03-06T10:44:52;25.2;;;21.3;;
77748;SDS011;66938;52.084;5.228;2024-03-06T10:48:07;24.0;;;21.4;;
77748;SDS011;66938;52.084;5.228;2024-03-06T10:49:44;25.1;;;20.5;;
77748;SDS011;66938;52.084;5.228;2024-03-06T10:51:22;30.0;;;22.5;;
77748;SDS011;66938;52.084;5.228;2024-03-06T10:52:59;25.8;;;21.2;;
77748;SDS011;66938;52.084;5.228;2024-03-06T10:56:12;25.5;;;20.41;;
77748;SDS011;66938;52.084;5.228;2024-03-06T10:57:49;24.4;;;19.8;;
77748;SDS011;66938;52.084;5.228;2024-03-06T10:59:29;26.0;;;21.2;;
77748;SDS011;66938;52.084;5.228;2024-03-06T11:02:43;25.3;;;21.1;;
77748;SDS011;66938;52.084;5.228;2024-03-06T11:04:24;26.6;;;21.0;;
77748;SDS011;66938;52.084;5.228;2024-03-06T11:06:02;28.1;;;22.9;;
77748;SDS011;66938;52.084;5.228;2024-03-06T11:07:39;26.3;;;22.5;;
77748;SDS011;66938;52.084;5.228;2024-03-06T11:10:51;26.6;;;20.6;;
77748;SDS011;66938;52.084;5.228;2024-03-06T11:12:32;26.2;;;21.0;;
77748;SDS011;66938;52.084;5.228;2024-03-06T11:14:10;29.2;;;23.5;;
77748;SDS011;66938;52.084;5.228;2024-03-06T11:17:27;26.7;;;21.7;;
77748;SDS011;66938;52.084;5.228;2024-03-06T11:19:05;26.7;;;21.7;;
77748;SDS011;66938;52.084;5.228;2024-03-06T11:20:41;26.4;;;22.6;;
77748;SDS011;66938;52.084;5.228;2024-03-06T11:22:17;23.6;;;19.5;;
77748;SDS011;66938;52.084;5.228;2024-03-06T11:25:59;27.5;;;23.0;;
77748;SDS011;66938;52.084;5.228;2024-03-06T11:28:01;26.5;;;21.2;;
77748;SDS011;66938;52.084;5.228;2024-03-06T11:30:18;25.6;;;19.7;;
77748;SDS011;66938;52.084;5.228;2024-03-06T11:31:56;25.6;;;19.7;;
77748;SDS011;66938;52.084;5.228;2024-03-06T11:33:41;30.7;;;23.7;;
77748;SDS011;66938;52.084;5.228;2024-03-06T11:35:19;24.6;;;21.5;;
77748;SDS011;66938;52.084;5.228;2024-03-06T11:36:56;27.7;;;21.7;;
77748;SDS011;66938;52.084;5.228;2024-03-06T11:40:13;24.7;;;21.5;;
77748;SDS011;66938;52.084;5.228;2024-03-06T11:41:49;30.2;;;24.3;;
77748;SDS011;66938;52.084;5.228;2024-03-06T11:43:26;29.8;;;23.3;;
77748;SDS011;66938;52.084;5.228;2024-03-06T11:46:57;27.2;;;22.5;;
77748;SDS011;66938;52.084;5.228;2024-03-06T11:48:35;24.2;;;21.1;;
77748;SDS011;66938;52.084;5.228;2024-03-06T11:50:12;25.8;;;20.8;;
77748;SDS011;66938;52.084;5.228;2024-03-06T11:51:49;22.8;;;18.91;;
77748;SDS011;66938;52.084;5.228;2024-03-06T11:53:26;20.7;;;16.8;;
77748;SDS011;66938;52.084;5.228;2024-03-06T11:56:43;25.4;;;20.7;;
77748;SDS011;66938;52.084;5.228;2024-03-06T11:58:21;21.5;;;18.2;;
77748;SDS011;66938;52.084;5.228;2024-03-06T12:00:02;22.9;;;19.3;;
77748;SDS011;66938;52.084;5.228;2024-03-06T12:03:17;25.5;;;22.1;;
77748;SDS011;66938;52.084;5.228;2024-03-06T12:04:54;22.5;;;18.91;;
77748;SDS011;66938;52.084;5.228;2024-03-06T12:06:32;25.2;;;20.3;;
77748;SDS011;66938;52.084;5.228;2024-03-06T12:08:08;21.2;;;17.61;;
77748;SDS011;66938;52.084;5.228;2024-03-06T12:11:20;24.7;;;20.41;;
77748;SDS011;66938;52.084;5.228;2024-03-06T12:12:56;25.1;;;21.4;;
77748;SDS011;66938;52.084;5.228;2024-03-06T12:14:34;20.9;;;16.9;;
77748;SDS011;66938;52.084;5.228;2024-03-06T12:17:48;21.1;;;18.0;;
77748;SDS011;66938;52.084;5.228;2024-03-06T12:19:25;21.3;;;16.61;;
77748;SDS011;66938;52.084;5.228;2024-03-06T12:21:02;24.0;;;19.11;;
77748;SDS011;66938;52.084;5.228;2024-03-06T12:24:20;23.2;;;18.7;;
77748;SDS011;66938;52.084;5.228;2024-03-06T12:26:02;22.8;;;19.2;;
77748;SDS011;66938;52.084;5.228;2024-03-06T12:27:40;20.6;;;17.2;;
77748;SDS011;66938;52.084;5.228;2024-03-06T12:29:17;22.2;;;18.0;;
77748;SDS011;66938;52.084;5.228;2024-03-06T12:32:31;24.3;;;20.9;;
77748;SDS011;66938;52.084;5.228;2024-03-06T12:34:07;26.1;;;20.2;;
77748;SDS011;66938;52.084;5.228;2024-03-06T12:35:43;20.8;;;16.4;;